Terminal Aerodrome Forecast
Issued by NWS Shreveport, LA

Home | Current Version | Previous Version | Text Only | Print | Product List | Glossary On
Versions: 1 2 3 4 5 6 7 8 9 10 11 12 13 14 15
000
FTUS44 KSHV 181700
TAFTYR
TAF
KTYR 181724Z 1818/1918 08004KT 6SM BR OVC005
     FM182100 06004KT P6SM SCT005 OVC011
     FM190300 06005KT P6SM OVC007
     FM190800 05005KT P6SM VCSH OVC006
      TEMPO 1912/1916 4SM SHRA BR OVC004
     FM191600 04007KT 2SM -RA BR OVC004=

USA.gov is the U.S. government's official web portal to all federal, state and local government web resources and services.